Time;durP1;ratioP1;P1;durP2;ratioP2;P2;SDS_P1;SDS_P2;PMS_P1;PMS_P2;Temp;Humidity;BMP_temperature;BMP_pressure;BME280_temperature;BME280_humidity;BME280_pressure;Samples;Min_cycle;Max_cycle;Signal;HPM_P1;HPM_P2
2021/08/25 00:01:17;;;;;;;10.33;6.17;;;13.00;82.80;;;;;;5058068;28;20202;-86
2021/08/25 00:03:44;;;;;;;8.33;6.43;;;13.00;82.20;;;;;;5075804;28;20192;-86
2021/08/25 00:06:10;;;;;;;10.37;6.10;;;13.00;83.00;;;;;;5075876;28;20689;-87
2021/08/25 00:08:36;;;;;;;11.37;6.10;;;13.00;82.60;;;;;;5076011;28;20172;-87
2021/08/25 00:11:03;;;;;;;13.13;6.43;;;13.00;82.20;;;;;;5057793;28;20176;-87
2021/08/25 00:13:29;;;;;;;8.43;5.50;;;13.00;82.20;;;;;;5075937;28;20241;-87
2021/08/25 00:15:55;;;;;;;9.33;5.33;;;13.00;81.70;;;;;;5075569;28;20194;-87
2021/08/25 00:18:21;;;;;;;16.30;6.53;;;13.00;81.50;;;;;;5075584;28;20168;-87
2021/08/25 00:20:47;;;;;;;10.03;5.70;;;13.00;81.30;;;;;;5075377;28;20244;-87
2021/08/25 00:23:13;;;;;;;8.80;6.50;;;13.00;81.50;;;;;;5057568;28;20705;-86
2021/08/25 00:25:38;;;;;;;9.83;5.93;;;13.00;81.50;;;;;;5058179;28;20179;-86
2021/08/25 00:28:04;;;;;;;7.17;5.80;;;13.00;81.40;;;;;;5075527;28;20171;-86
2021/08/25 00:30:30;;;;;;;10.77;6.80;;;12.90;81.70;;;;;;5057527;28;20175;-86
2021/08/25 00:32:55;;;;;;;7.20;5.47;;;12.90;81.50;;;;;;5057521;28;20195;-86
2021/08/25 00:35:21;;;;;;;7.07;5.40;;;12.80;81.90;;;;;;5075756;28;20179;-86
2021/08/25 00:37:47;;;;;;;7.10;4.97;;;12.80;82.10;;;;;;5057455;28;20179;-86
2021/08/25 00:40:13;;;;;;;8.60;5.40;;;12.70;82.40;;;;;;5057185;28;20195;-86
2021/08/25 00:42:39;;;;;;;8.83;5.63;;;12.50;83.10;;;;;;5057270;28;20188;-87
2021/08/25 00:45:06;;;;;;;13.90;5.77;;;12.30;83.60;;;;;;5075422;28;20207;-86
2021/08/25 00:47:36;;;;;;;7.23;5.30;;;12.30;83.70;;;;;;5075676;28;20160;-86
2021/08/25 00:50:03;;;;;;;6.87;5.00;;;12.30;83.50;;;;;;5057124;28;20167;-86
2021/08/25 00:52:29;;;;;;;10.20;4.93;;;12.30;83.50;;;;;;5075128;28;20227;-86
2021/08/25 00:54:55;;;;;;;6.17;5.13;;;12.40;83.10;;;;;;5057000;28;20176;-86
2021/08/25 00:57:21;;;;;;;7.13;5.33;;;12.30;83.00;;;;;;5074784;28;20209;-86
2021/08/25 00:59:47;;;;;;;6.27;4.80;;;12.30;83.50;;;;;;5056894;28;20199;-86
2021/08/25 01:02:22;;;;;;;11.30;4.73;;;12.30;83.70;;;;;;5057058;28;20172;-86
2021/08/25 01:04:53;;;;;;;4.73;3.90;;;12.30;83.50;;;;;;5056212;28;20171;-86
2021/08/25 01:07:22;;;;;;;4.20;3.80;;;12.30;83.00;;;;;;5057066;28;20647;-86
2021/08/25 01:09:50;;;;;;;3.70;3.40;;;12.30;82.60;;;;;;5074756;28;20220;-86
2021/08/25 01:12:15;;;;;;;7.73;3.20;;;12.30;82.20;;;;;;5074615;28;20254;-86
2021/08/25 01:14:41;;;;;;;5.33;3.50;;;12.30;81.90;;;;;;5074675;28;20272;-86
2021/08/25 01:17:09;;;;;;;3.40;3.10;;;12.30;81.60;;;;;;5056811;28;20268;-86
2021/08/25 01:19:50;;;;;;;6.07;3.50;;;12.30;81.40;;;;;;5056501;28;20245;-86
2021/08/25 01:22:19;;;;;;;3.57;3.27;;;12.30;81.20;;;;;;5056604;28;20160;-86
2021/08/25 01:24:47;;;;;;;3.57;3.13;;;12.30;81.10;;;;;;5074526;28;20593;-86
2021/08/25 01:27:16;;;;;;;4.90;3.20;;;12.30;81.00;;;;;;5056417;28;20639;-86
2021/08/25 01:29:43;;;;;;;4.67;3.50;;;12.30;80.90;;;;;;5056514;28;20546;-86
2021/08/25 01:32:09;;;;;;;5.90;4.20;;;12.30;80.80;;;;;;5056575;28;20182;-86
2021/08/25 01:35:01;;;;;;;12.00;5.67;;;12.20;80.90;;;;;;5074202;28;20199;-86
2021/08/25 01:37:28;;;;;;;5.77;4.60;;;12.20;83.60;;;;;;5052768;28;20187;-86
2021/08/25 01:39:54;;;;;;;7.60;5.20;;;12.00;85.90;;;;;;5074059;28;20676;-86
2021/08/25 01:42:21;;;;;;;13.83;4.30;;;12.00;85.70;;;;;;5056159;28;20702;-86
2021/08/25 01:44:48;;;;;;;22.53;4.50;;;12.00;87.00;;;;;;5074039;28;20512;-86
2021/08/25 01:47:14;;;;;;;98.40;8.20;;;12.00;86.80;;;;;;5073979;28;20171;-86
2021/08/25 01:49:48;;;;;;;9.47;4.40;;;12.00;87.20;;;;;;5073858;28;20205;-86
2021/08/25 01:52:14;;;;;;;4.13;3.57;;;12.00;87.60;;;;;;5073852;28;20212;-86
2021/08/25 01:54:41;;;;;;;4.30;3.60;;;12.00;86.80;;;;;;5073736;28;20198;-86
2021/08/25 01:57:07;;;;;;;3.47;3.17;;;12.00;85.90;;;;;;5056218;28;20175;-86
2021/08/25 01:59:33;;;;;;;7.43;3.10;;;12.10;85.20;;;;;;5055950;28;20675;-86
2021/08/25 02:01:59;;;;;;;32.67;4.70;;;12.10;84.50;;;;;;5055835;28;20178;-86
2021/08/25 02:04:25;;;;;;;185.80;10.33;;;12.00;85.20;;;;;;5056074;28;20605;-86
2021/08/25 02:06:53;;;;;;;85.33;6.90;;;11.90;85.70;;;;;;5073532;28;20171;-86
2021/08/25 02:09:20;;;;;;;71.70;5.33;;;11.80;86.30;;;;;;5055795;28;20176;-86
2021/08/25 02:11:45;;;;;;;34.60;3.40;;;11.80;86.50;;;;;;5055949;28;20175;-86
2021/08/25 02:14:11;;;;;;;3.07;2.73;;;11.80;86.60;;;;;;5055513;28;20777;-86
2021/08/25 02:16:36;;;;;;;8.03;3.00;;;11.90;85.90;;;;;;5055712;28;20262;-86
2021/08/25 02:19:02;;;;;;;8.90;4.00;;;11.90;85.40;;;;;;5055681;28;20199;-86
2021/08/25 02:21:28;;;;;;;31.30;4.57;;;12.00;85.20;;;;;;5073590;28;20163;-86
2021/08/25 02:23:54;;;;;;;71.00;5.90;;;11.90;85.50;;;;;;5055228;28;20207;-86
2021/08/25 02:26:19;;;;;;;35.10;4.73;;;11.90;85.60;;;;;;5055656;28;20183;-86
2021/08/25 02:28:48;;;;;;;47.80;6.40;;;11.80;86.90;;;;;;5073406;28;20167;-86
2021/08/25 02:31:14;;;;;;;29.73;5.37;;;11.90;87.30;;;;;;5073748;28;20171;-86
2021/08/25 02:33:40;;;;;;;66.97;5.67;;;11.90;87.10;;;;;;5073497;28;20187;-86
2021/08/25 02:36:08;;;;;;;75.27;6.30;;;11.90;87.00;;;;;;5073405;28;20160;-86
2021/08/25 02:38:34;;;;;;;64.70;6.20;;;11.90;87.20;;;;;;5154583;22;20253;-82
2021/08/25 02:41:01;;;;;;;66.77;5.77;;;11.90;87.30;;;;;;5075154;28;20558;-82
2021/08/25 02:43:27;;;;;;;61.93;6.53;;;11.90;87.50;;;;;;5075421;28;20174;-82
2021/08/25 02:45:52;;;;;;;101.90;7.80;;;11.90;87.60;;;;;;5093254;28;20193;-82
2021/08/25 02:48:18;;;;;;;121.00;8.13;;;11.90;87.60;;;;;;5074978;28;20556;-82
2021/08/25 02:50:44;;;;;;;105.40;7.83;;;11.90;87.90;;;;;;5075141;28;20597;-82
2021/08/25 02:53:10;;;;;;;27.13;5.03;;;11.80;88.20;;;;;;5075093;28;20275;-82
2021/08/25 02:55:36;;;;;;;24.53;4.63;;;11.80;88.30;;;;;;5074992;28;20552;-82
2021/08/25 02:58:02;;;;;;;64.63;6.37;;;11.90;88.00;;;;;;5093126;28;20187;-82
2021/08/25 03:00:28;;;;;;;60.50;6.80;;;11.90;87.70;;;;;;5093025;28;20213;-82
2021/08/25 03:02:53;;;;;;;109.20;7.73;;;11.90;88.20;;;;;;5093127;28;20562;-82
2021/08/25 03:05:20;;;;;;;73.57;7.70;;;11.80;88.50;;;;;;5074944;28;20219;-82
2021/08/25 03:07:45;;;;;;;64.07;7.30;;;11.80;88.90;;;;;;5074829;28;20190;-82
2021/08/25 03:10:11;;;;;;;19.33;6.70;;;11.80;88.80;;;;;;5093285;28;20181;-82
2021/08/25 03:12:37;;;;;;;83.80;8.93;;;11.90;88.20;;;;;;5093627;28;20170;-82
2021/08/25 03:15:06;;;;;;;95.17;8.63;;;11.90;88.00;;;;;;5092857;28;20557;-82
2021/08/25 03:17:31;;;;;;;22.50;8.87;;;12.00;87.70;;;;;;5092830;28;20681;-81
2021/08/25 03:19:57;;;;;;;13.17;9.50;;;12.00;88.10;;;;;;5074778;28;20236;-82
2021/08/25 03:22:23;;;;;;;12.93;9.07;;;12.10;88.40;;;;;;5092887;28;20175;-82
2021/08/25 03:24:49;;;;;;;8.00;7.30;;;12.00;88.40;;;;;;5074852;28;20174;-82
2021/08/25 03:27:15;;;;;;;12.93;8.70;;;12.10;87.90;;;;;;5076340;28;20223;-82
2021/08/25 03:29:40;;;;;;;11.27;9.67;;;12.20;87.50;;;;;;5096614;28;20583;-82
2021/08/25 03:32:06;;;;;;;10.43;8.87;;;12.20;87.90;;;;;;5096594;28;20220;-82
2021/08/25 03:34:32;;;;;;;11.40;10.20;;;12.20;87.40;;;;;;5096800;28;20172;-82
2021/08/25 03:36:58;;;;;;;16.20;14.00;;;12.30;87.30;;;;;;5078328;28;20194;-82
2021/08/25 03:39:23;;;;;;;16.13;10.30;;;12.30;88.60;;;;;;5078124;28;20283;-82
2021/08/25 03:41:49;;;;;;;15.47;12.30;;;12.40;88.50;;;;;;5096490;28;20174;-82
2021/08/25 03:44:15;;;;;;;16.90;15.10;;;12.30;88.10;;;;;;5096981;28;20198;-82
2021/08/25 03:46:40;;;;;;;15.80;14.10;;;12.40;88.90;;;;;;5096539;28;20210;-82
2021/08/25 03:49:06;;;;;;;18.10;16.20;;;12.50;89.70;;;;;;5078088;28;20701;-82
2021/08/25 03:51:31;;;;;;;18.03;16.17;;;12.60;90.30;;;;;;5096183;28;20198;-82
2021/08/25 03:53:57;;;;;;;19.53;15.80;;;12.50;90.20;;;;;;5096278;28;20277;-82
2021/08/25 03:56:23;;;;;;;20.53;17.87;;;12.50;90.20;;;;;;5096479;28;20186;-82
2021/08/25 03:58:49;;;;;;;25.10;21.90;;;12.50;90.10;;;;;;5095992;28;20194;-82
2021/08/25 04:01:14;;;;;;;24.97;20.43;;;12.50;90.30;;;;;;5077916;28;20597;-82
2021/08/25 04:03:40;;;;;;;33.30;24.07;;;12.60;90.70;;;;;;5096037;28;20166;-82
2021/08/25 04:06:06;;;;;;;26.97;21.97;;;12.60;91.30;;;;;;5095974;28;20212;-82
2021/08/25 04:08:31;;;;;;;32.93;22.27;;;12.60;91.50;;;;;;5095950;28;20223;-82
2021/08/25 04:10:57;;;;;;;24.93;20.90;;;12.60;91.60;;;;;;5096096;28;20202;-82
2021/08/25 04:13:22;;;;;;;29.30;22.47;;;12.60;91.70;;;;;;5096177;28;20171;-82
2021/08/25 04:15:48;;;;;;;30.33;24.60;;;12.70;91.70;;;;;;5096101;28;20239;-82
2021/08/25 04:18:14;;;;;;;32.93;24.43;;;12.80;92.00;;;;;;5077445;28;20191;-82
2021/08/25 04:20:39;;;;;;;28.83;24.00;;;12.80;92.00;;;;;;5077472;28;20672;-82
2021/08/25 04:23:05;;;;;;;36.53;25.80;;;12.90;92.20;;;;;;5095888;28;20548;-82
2021/08/25 04:25:31;;;;;;;30.80;22.80;;;12.90;92.40;;;;;;5096414;28;20183;-82
2021/08/25 04:27:56;;;;;;;31.17;21.77;;;12.90;92.50;;;;;;5095433;28;20191;-82
2021/08/25 04:30:22;;;;;;;29.37;22.20;;;12.90;92.50;;;;;;5095524;28;20568;-82
2021/08/25 04:32:47;;;;;;;30.93;21.07;;;13.00;92.50;;;;;;5095400;28;20179;-82
2021/08/25 04:35:13;;;;;;;22.17;19.57;;;13.00;92.40;;;;;;5095400;28;20310;-82
2021/08/25 04:37:39;;;;;;;28.90;20.27;;;13.00;92.50;;;;;;5076548;28;20351;-82
2021/08/25 04:40:05;;;;;;;26.53;19.83;;;13.00;92.60;;;;;;5094811;28;20198;-82
2021/08/25 04:42:31;;;;;;;27.77;19.60;;;13.00;92.70;;;;;;5077102;28;20225;-82
2021/08/25 04:44:57;;;;;;;27.93;20.07;;;13.10;92.80;;;;;;5077122;28;20252;-82
2021/08/25 04:47:23;;;;;;;35.57;21.90;;;13.20;92.80;;;;;;5095136;28;20689;-82
2021/08/25 04:49:48;;;;;;;27.80;23.30;;;13.30;93.00;;;;;;5077242;28;20267;-82
2021/08/25 04:52:14;;;;;;;35.93;23.63;;;13.30;93.10;;;;;;5095109;28;20179;-83
2021/08/25 04:54:40;;;;;;;30.60;24.10;;;13.40;93.30;;;;;;5076874;28;20178;-82
2021/08/25 04:57:07;;;;;;;33.87;22.63;;;13.40;93.50;;;;;;5077272;28;20251;-81
2021/08/25 04:59:32;;;;;;;29.07;22.50;;;13.50;93.50;;;;;;5076734;28;20210;-82
2021/08/25 05:01:58;;;;;;;28.53;20.67;;;13.50;93.60;;;;;;5094819;28;20171;-82
2021/08/25 05:04:24;;;;;;;27.37;19.60;;;13.50;93.60;;;;;;5094862;28;20591;-82
2021/08/25 05:06:50;;;;;;;24.50;17.70;;;13.50;93.60;;;;;;5094791;28;20265;-82
2021/08/25 05:09:15;;;;;;;29.87;17.70;;;13.50;93.50;;;;;;5076486;28;20190;-82
2021/08/25 05:11:41;;;;;;;29.73;17.63;;;13.40;93.40;;;;;;5094959;28;20227;-83
2021/08/25 05:14:06;;;;;;;29.53;21.10;;;13.50;93.40;;;;;;5094675;28;20167;-82
2021/08/25 05:16:32;;;;;;;28.20;20.37;;;13.50;93.40;;;;;;5094602;28;20183;-82
2021/08/25 05:18:58;;;;;;;31.97;19.93;;;13.50;93.40;;;;;;5076270;28;20210;-82
2021/08/25 05:21:24;;;;;;;29.10;18.20;;;13.50;93.50;;;;;;5094532;28;20171;-82
2021/08/25 05:23:49;;;;;;;28.27;19.67;;;13.60;93.60;;;;;;5076276;28;20186;-82
2021/08/25 05:26:16;;;;;;;22.47;15.50;;;13.70;93.60;;;;;;5076257;28;20184;-82
2021/08/25 05:28:41;;;;;;;23.40;16.43;;;13.60;93.60;;;;;;5094599;28;20562;-83
2021/08/25 05:31:07;;;;;;;22.07;15.07;;;13.70;93.70;;;;;;5094309;28;20171;-83
2021/08/25 05:33:33;;;;;;;24.30;15.97;;;13.80;93.60;;;;;;5076079;28;20175;-82
2021/08/25 05:35:59;;;;;;;20.37;15.10;;;13.90;93.60;;;;;;5094294;28;20175;-82
2021/08/25 05:38:25;;;;;;;18.67;13.97;;;13.90;93.50;;;;;;5093891;28;20210;-82
2021/08/25 05:40:51;;;;;;;23.93;15.80;;;14.00;93.60;;;;;;5075934;28;20297;-82
2021/08/25 05:43:17;;;;;;;21.13;16.73;;;14.00;93.40;;;;;;5094118;28;20206;-82
2021/08/25 05:45:43;;;;;;;22.67;15.40;;;14.10;93.50;;;;;;5094051;28;20175;-82
2021/08/25 05:48:09;;;;;;;18.97;14.97;;;14.10;93.30;;;;;;5075765;28;20190;-82
2021/08/25 05:50:35;;;;;;;18.57;14.50;;;14.10;93.30;;;;;;5075547;28;20550;-82
2021/08/25 05:53:00;;;;;;;21.70;14.77;;;14.10;93.10;;;;;;5075825;28;20186;-82
2021/08/25 05:55:26;;;;;;;22.77;14.50;;;14.10;93.00;;;;;;5075818;28;20231;-82
2021/08/25 05:57:52;;;;;;;22.47;13.50;;;14.20;93.00;;;;;;5093757;28;20222;-81
2021/08/25 06:00:19;;;;;;;22.80;15.30;;;14.30;93.10;;;;;;5075588;28;20301;-82
2021/08/25 06:02:45;;;;;;;21.10;14.07;;;14.40;93.10;;;;;;5075627;28;20614;-83
2021/08/25 06:05:12;;;;;;;18.30;13.03;;;14.40;93.00;;;;;;5093785;28;20171;-82
2021/08/25 06:07:37;;;;;;;19.13;13.03;;;14.30;92.80;;;;;;5093634;28;20654;-82
2021/08/25 06:10:04;;;;;;;18.27;13.37;;;14.40;92.80;;;;;;5093839;28;20232;-82
2021/08/25 06:12:30;;;;;;;19.03;13.70;;;14.40;92.60;;;;;;5075464;28;20189;-83
2021/08/25 06:14:55;;;;;;;20.90;13.23;;;14.40;92.50;;;;;;5075634;28;20277;-82
2021/08/25 06:17:21;;;;;;;18.00;13.40;;;14.40;92.40;;;;;;5093561;28;20249;-82
2021/08/25 06:19:47;;;;;;;18.43;12.70;;;14.50;92.30;;;;;;5075334;28;20198;-82
2021/08/25 06:22:12;;;;;;;21.77;13.00;;;14.50;92.20;;;;;;5093724;28;20174;-82
2021/08/25 06:24:38;;;;;;;17.23;12.57;;;14.60;92.20;;;;;;5093497;28;20257;-82
2021/08/25 06:27:04;;;;;;;19.03;12.73;;;14.70;92.20;;;;;;5093391;28;20646;-82
2021/08/25 06:29:30;;;;;;;15.73;12.13;;;14.70;92.20;;;;;;5093430;28;20547;-83
2021/08/25 06:31:56;;;;;;;14.43;12.03;;;14.80;92.20;;;;;;5075240;28;20337;-82
2021/08/25 06:34:22;;;;;;;16.40;11.27;;;14.80;92.10;;;;;;5076083;28;20277;-82
2021/08/25 06:36:48;;;;;;;15.00;11.10;;;14.80;92.00;;;;;;5075212;28;20178;-82
2021/08/25 06:39:13;;;;;;;19.53;11.23;;;14.80;91.70;;;;;;5093156;28;20221;-82
2021/08/25 06:41:39;;;;;;;13.57;10.40;;;14.90;91.50;;;;;;5075158;28;20178;-82
2021/08/25 06:44:05;;;;;;;15.33;10.37;;;14.90;91.60;;;;;;5075209;28;20182;-83
2021/08/25 06:46:30;;;;;;;12.47;10.13;;;15.00;91.50;;;;;;5075097;28;20659;-82
2021/08/25 06:48:56;;;;;;;15.77;9.63;;;15.10;91.60;;;;;;5093172;28;20194;-82
2021/08/25 06:51:22;;;;;;;14.23;9.17;;;15.20;91.50;;;;;;5093439;28;20247;-82
2021/08/25 06:53:48;;;;;;;10.30;8.87;;;15.30;91.40;;;;;;5093220;28;20642;-83
2021/08/25 06:56:13;;;;;;;14.37;8.57;;;15.30;91.20;;;;;;5075547;28;20181;-83
2021/08/25 06:58:39;;;;;;;9.13;8.10;;;15.50;91.30;;;;;;5074968;28;20281;-82
2021/08/25 07:01:04;;;;;;;10.40;7.40;;;15.50;90.70;;;;;;5075122;28;20247;-82
2021/08/25 07:03:30;;;;;;;9.07;7.33;;;15.60;90.10;;;;;;5096982;28;20175;-82
2021/08/25 07:05:56;;;;;;;7.50;5.30;;;15.70;90.20;;;;;;5078912;28;20715;-82
2021/08/25 07:08:21;;;;;;;11.83;5.90;;;15.80;89.00;;;;;;5097082;28;20688;-82
2021/08/25 07:10:47;;;;;;;8.10;5.20;;;16.00;89.20;;;;;;5078901;28;20178;-82
2021/08/25 07:13:13;;;;;;;7.57;5.07;;;16.00;89.00;;;;;;5078879;28;20608;-82
2021/08/25 07:15:39;;;;;;;9.98;4.90;;;16.30;88.90;;;;;;5078722;28;20266;-83
2021/08/25 07:18:04;;;;;;;8.32;5.00;;;16.20;89.00;;;;;;5096832;28;20253;-83
2021/08/25 07:20:30;;;;;;;7.78;4.43;;;16.20;89.40;;;;;;5096990;28;20565;-83
2021/08/25 07:22:56;;;;;;;5.28;3.53;;;16.20;88.60;;;;;;5096863;28;20220;-83
2021/08/25 07:25:22;;;;;;;9.65;2.83;;;16.30;88.90;;;;;;5096748;28;20181;-83
2021/08/25 07:27:47;;;;;;;4.65;2.03;;;16.30;88.20;;;;;;5078481;28;20746;-83
2021/08/25 07:30:13;;;;;;;2.50;1.90;;;16.50;87.40;;;;;;5078496;28;20282;-82
2021/08/25 07:32:40;;;;;;;6.15;2.30;;;16.50;85.70;;;;;;5078450;28;20189;-82
2021/08/25 07:35:10;;;;;;;5.28;2.15;;;16.60;86.00;;;;;;5078425;28;20646;-83
2021/08/25 07:37:36;;;;;;;3.03;1.52;;;16.50;86.00;;;;;;5078276;28;20579;-84
2021/08/25 07:40:04;;;;;;;3.88;1.70;;;16.60;85.80;;;;;;5078373;28;20561;-83
2021/08/25 07:42:30;;;;;;;1.77;1.42;;;16.60;85.50;;;;;;5096357;28;20167;-82
2021/08/25 07:44:55;;;;;;;3.25;1.80;;;16.80;85.80;;;;;;5078225;28;20174;-82
2021/08/25 07:47:21;;;;;;;4.78;1.67;;;16.80;85.20;;;;;;5096249;28;20219;-82
2021/08/25 07:49:46;;;;;;;3.10;1.50;;;17.00;84.10;;;;;;5096564;28;20266;-82
2021/08/25 07:52:12;;;;;;;4.70;1.35;;;17.00;84.10;;;;;;5078116;28;20178;-82
2021/08/25 07:54:38;;;;;;;3.15;1.42;;;17.10;82.60;;;;;;5096262;28;20232;-82
2021/08/25 07:57:04;;;;;;;2.03;1.23;;;17.30;82.70;;;;;;5096032;28;20178;-81
2021/08/25 07:59:29;;;;;;;2.58;1.08;;;17.30;81.60;;;;;;5096096;28;20203;-82
2021/08/25 08:01:55;;;;;;;1.85;1.05;;;17.20;80.90;;;;;;5096090;28;20638;-82
2021/08/25 08:04:21;;;;;;;5.18;1.55;;;17.10;80.20;;;;;;5096030;28;20254;-82
2021/08/25 08:06:47;;;;;;;2.72;1.10;;;17.10;81.30;;;;;;5077857;28;20588;-83
2021/08/25 08:09:13;;;;;;;1.30;1.08;;;17.10;81.80;;;;;;5077600;28;20227;-82
2021/08/25 08:11:39;;;;;;;3.60;1.48;;;17.10;82.20;;;;;;5077778;28;20206;-82
2021/08/25 08:14:06;;;;;;;2.22;1.17;;;17.10;81.10;;;;;;5077610;28;20183;-82
2021/08/25 08:16:34;;;;;;;1.35;1.10;;;17.00;80.70;;;;;;5095851;28;20521;-82
2021/08/25 08:21:46;;;;;;;2.00;1.17;;;16.80;81.20;;;;;;5095830;28;20201;-82
2021/08/25 08:24:12;;;;;;;3.55;1.02;;;17.00;82.10;;;;;;5097250;28;20177;-83
2021/08/25 08:26:38;;;;;;;5.03;0.85;;;17.20;81.80;;;;;;5078513;28;20245;-83
2021/08/25 08:29:03;;;;;;;3.70;0.70;;;17.20;82.60;;;;;;5095754;28;20683;-82
2021/08/25 08:31:29;;;;;;;3.55;0.80;;;17.10;83.00;;;;;;5095506;28;20257;-82
2021/08/25 08:33:56;;;;;;;0.77;0.77;;;17.10;83.20;;;;;;5095538;28;20208;-82
2021/08/25 08:36:21;;;;;;;0.70;0.30;;;17.00;83.70;;;;;;5077361;28;20182;-82
2021/08/25 08:38:47;;;;;;;0.50;0.50;;;17.00;82.60;;;;;;5117770;22;20226;-87
2021/08/25 08:41:13;;;;;;;0.65;0.40;;;16.90;83.60;;;;;;5078192;28;20672;-86
2021/08/25 08:43:47;;;;;;;1.58;0.47;;;17.00;83.40;;;;;;5077322;28;20668;-86
2021/08/25 08:46:17;;;;;;;1.67;0.73;;;17.00;84.30;;;;;;5077146;28;20544;-86
2021/08/25 08:48:44;;;;;;;3.78;0.80;;;17.10;84.50;;;;;;5095318;28;20187;-86
2021/08/25 08:51:11;;;;;;;1.98;1.00;;;16.90;85.80;;;;;;5095172;28;20637;-86
2021/08/25 08:53:37;;;;;;;1.63;0.80;;;16.70;85.90;;;;;;5095059;28;20175;-86
2021/08/25 08:56:03;;;;;;;2.85;1.02;;;16.70;85.90;;;;;;5095153;28;20216;-86
2021/08/25 08:58:29;;;;;;;5.13;1.17;;;16.70;85.90;;;;;;5076896;28;20198;-86
2021/08/25 09:00:55;;;;;;;1.98;0.80;;;16.80;85.20;;;;;;5076835;28;20576;-86
2021/08/25 09:03:23;;;;;;;2.90;0.90;;;17.00;85.20;;;;;;5094998;28;20163;-86
2021/08/25 09:05:54;;;;;;;3.35;1.23;;;17.20;83.90;;;;;;5076754;28;20261;-86
2021/08/25 09:08:26;;;;;;;2.35;1.20;;;17.20;83.40;;;;;;5076630;28;20694;-87
2021/08/25 09:11:21;;;;;;;6.30;1.10;;;17.40;83.30;;;;;;5094699;28;20253;-86
2021/08/25 09:13:50;;;;;;;2.85;0.80;;;17.70;81.00;;;;;;5077596;28;20186;-86
2021/08/25 09:16:25;;;;;;;4.80;1.77;;;18.00;80.50;;;;;;5094884;28;20205;-87
2021/08/25 09:19:16;;;;;;;3.60;1.23;;;17.90;78.60;;;;;;5076356;28;20191;-87
2021/08/25 09:21:52;;;;;;;2.70;1.35;;;18.10;79.40;;;;;;5076593;28;20194;-86
2021/08/25 09:24:22;;;;;;;2.60;1.13;;;18.40;78.40;;;;;;5076320;28;20254;-86
2021/08/25 09:27:12;;;;;;;5.97;1.35;;;18.60;78.40;;;;;;5094450;28;20174;-86
2021/08/25 09:29:39;;;;;;;2.83;0.98;;;18.20;76.00;;;;;;5076609;28;20199;-86
2021/08/25 09:32:18;;;;;;;1.10;0.90;;;17.80;76.80;;;;;;5076272;28;20178;-86
2021/08/25 09:34:44;;;;;;;6.75;1.38;;;17.80;75.20;;;;;;5094317;28;20228;-86
2021/08/25 09:37:17;;;;;;;4.65;1.45;;;18.00;74.20;;;;;;5094255;28;20174;-86
2021/08/25 09:39:51;;;;;;;3.83;1.33;;;18.10;74.50;;;;;;5093972;28;20776;-86
2021/08/25 09:42:19;;;;;;;5.20;1.42;;;18.30;73.40;;;;;;5076007;28;20185;-86
2021/08/25 09:44:58;;;;;;;1.55;1.17;;;18.60;72.60;;;;;;5094063;28;20194;-86
2021/08/25 09:47:45;;;;;;;4.20;1.08;;;18.80;73.20;;;;;;5094050;28;20688;-86
2021/08/25 09:50:11;;;;;;;2.80;1.13;;;18.90;69.90;;;;;;5094297;28;20197;-86
2021/08/25 09:52:37;;;;;;;8.55;2.03;;;18.90;71.40;;;;;;5093950;28;20258;-85
2021/08/25 09:55:03;;;;;;;2.33;1.23;;;18.70;70.70;;;;;;5093912;28;20685;-85
2021/08/25 09:57:40;;;;;;;5.45;1.17;;;18.90;71.30;;;;;;5075752;28;20182;-85
2021/08/25 10:00:08;;;;;;;2.47;1.10;;;19.00;70.40;;;;;;5075590;28;20202;-85
2021/08/25 10:02:34;;;;;;;3.33;1.25;;;19.10;70.70;;;;;;5075662;28;20166;-85
2021/08/25 10:05:01;;;;;;;4.13;1.10;;;18.80;70.10;;;;;;5075733;28;20210;-85
2021/08/25 10:08:18;;;;;;;3.20;1.02;;;18.80;71.20;;;;;;5093700;28;20539;-86
2021/08/25 10:10:44;;;;;;;1.02;0.90;;;18.90;71.10;;;;;;5093567;28;20175;-86
2021/08/25 10:13:10;;;;;;;2.65;1.10;;;18.80;71.70;;;;;;5075633;28;20179;-86
2021/08/25 10:15:41;;;;;;;2.88;0.82;;;18.80;71.20;;;;;;5093583;28;20220;-86
2021/08/25 10:18:30;;;;;;;3.50;0.82;;;19.00;71.20;;;;;;5075415;28;20763;-86
2021/08/25 10:20:58;;;;;;;4.88;1.35;;;19.10;71.20;;;;;;5093503;28;20544;-87
2021/08/25 10:23:58;;;;;;;7.25;1.20;;;19.20;70.40;;;;;;5075368;28;20224;-87
2021/08/25 10:26:25;;;;;;;1.80;1.02;;;18.90;70.00;;;;;;5093677;28;20167;-87
2021/08/25 10:28:59;;;;;;;6.95;1.50;;;18.70;70.20;;;;;;5075282;28;20620;-87
2021/08/25 10:31:50;;;;;;;3.92;1.17;;;18.80;71.40;;;;;;5093438;28;20197;-87
2021/08/25 10:34:21;;;;;;;4.20;1.20;;;18.30;71.90;;;;;;5075888;28;20170;-86
2021/08/25 10:36:47;;;;;;;5.35;1.50;;;18.40;73.10;;;;;;5092424;28;20150;-86
2021/08/25 10:39:35;;;;;;;4.20;1.00;;;18.50;72.90;;;;;;5092527;28;20289;-87
2021/08/25 10:42:03;;;;;;;1.95;1.00;;;18.50;72.20;;;;;;5092530;28;20249;-86
2021/08/25 10:44:40;;;;;;;2.90;0.80;;;18.30;73.00;;;;;;5092435;28;20543;-87
2021/08/25 10:47:08;;;;;;;2.13;0.98;;;18.20;73.30;;;;;;5074285;28;20174;-87
2021/08/25 10:49:35;;;;;;;4.75;1.05;;;18.30;73.10;;;;;;5092446;28;20218;-87
2021/08/25 10:52:17;;;;;;;2.60;1.13;;;18.20;72.50;;;;;;5074248;28;20183;-87
2021/08/25 10:54:50;;;;;;;4.32;1.23;;;18.00;73.30;;;;;;5074260;28;20197;-87
2021/08/25 10:57:20;;;;;;;1.95;0.90;;;18.00;74.40;;;;;;5074714;28;20209;-87
2021/08/25 10:59:47;;;;;;;2.13;1.08;;;17.80;74.70;;;;;;5074117;28;20209;-87
2021/08/25 11:02:12;;;;;;;1.58;0.90;;;17.70;74.80;;;;;;5092454;28;20159;-87
2021/08/25 11:04:38;;;;;;;3.50;0.90;;;17.60;76.20;;;;;;5092523;28;20312;-87
2021/08/25 11:07:13;;;;;;;6.22;1.58;;;17.50;77.40;;;;;;5074186;28;20177;-87
2021/08/25 11:09:46;;;;;;;3.13;0.95;;;17.40;78.00;;;;;;5092478;28;20194;-87
2021/08/25 11:12:20;;;;;;;2.25;1.08;;;17.30;78.70;;;;;;5092226;28;20159;-87
2021/08/25 11:14:50;;;;;;;3.63;0.95;;;17.30;79.00;;;;;;5074143;28;20190;-87
2021/08/25 11:17:29;;;;;;;4.40;1.15;;;17.30;79.30;;;;;;5073954;28;20546;-87
2021/08/25 11:20:00;;;;;;;3.55;1.08;;;17.30;79.80;;;;;;5073744;28;20213;-87
2021/08/25 11:22:32;;;;;;;1.05;0.93;;;17.30;79.60;;;;;;5092126;28;20151;-87
2021/08/25 11:25:07;;;;;;;2.25;1.52;;;17.20;79.40;;;;;;5074124;28;20215;-87
2021/08/25 11:27:39;;;;;;;1.08;0.93;;;17.30;80.00;;;;;;5091952;28;20171;-87
2021/08/25 11:30:08;;;;;;;3.42;1.05;;;17.40;79.70;;;;;;5074077;28;20541;-87
2021/08/25 11:32:54;;;;;;;4.10;1.10;;;17.40;79.30;;;;;;5073977;28;20167;-87
2021/08/25 11:35:26;;;;;;;2.63;1.20;;;17.60;79.30;;;;;;5077704;28;20190;-87
2021/08/25 11:37:53;;;;;;;1.87;0.80;;;17.70;78.70;;;;;;5053004;28;1105684;-87
2021/08/25 11:40:23;;;;;;;1.67;0.90;;;17.70;79.20;;;;;;5092710;28;20189;-87
2021/08/25 11:42:49;;;;;;;4.13;1.38;;;17.90;79.70;;;;;;5074661;28;20218;-87
2021/08/25 11:45:15;;;;;;;2.50;1.10;;;18.00;78.40;;;;;;5074768;28;20621;-87
2021/08/25 11:47:48;;;;;;;3.85;0.80;;;17.80;78.90;;;;;;5075381;28;20244;-87
2021/08/25 11:50:14;;;;;;;4.38;1.10;;;17.80;79.70;;;;;;5096410;28;20177;-87
2021/08/25 11:52:40;;;;;;;6.93;1.27;;;18.00;79.80;;;;;;5096341;28;20167;-87
2021/08/25 11:55:07;;;;;;;1.95;1.08;;;18.00;79.90;;;;;;5078078;28;20661;-86
2021/08/25 11:57:48;;;;;;;3.03;1.30;;;17.70;79.90;;;;;;5096527;28;20171;-87
2021/08/25 12:00:23;;;;;;;6.55;1.30;;;17.60;79.70;;;;;;5096090;28;20186;-87
2021/08/25 12:02:56;;;;;;;2.88;0.90;;;17.60;80.70;;;;;;5077953;28;20659;-86
2021/08/25 12:05:28;;;;;;;1.17;1.05;;;17.50;81.10;;;;;;5077980;28;20576;-87
2021/08/25 12:08:03;;;;;;;1.85;1.08;;;17.30;82.00;;;;;;5077884;28;20194;-86
2021/08/25 12:10:29;;;;;;;3.65;1.27;;;17.30;82.60;;;;;;5078125;28;20166;-87
2021/08/25 12:12:58;;;;;;;2.55;1.60;;;17.20;83.00;;;;;;5095949;28;20697;-87
2021/08/25 12:15:43;;;;;;;2.13;1.00;;;17.10;84.00;;;;;;5095974;28;20545;-87
2021/08/25 12:18:09;;;;;;;2.53;1.02;;;17.30;84.10;;;;;;5095927;28;20187;-87
2021/08/25 12:20:36;;;;;;;3.60;1.60;;;17.60;83.30;;;;;;5096166;28;20209;-87
2021/08/25 12:23:03;;;;;;;4.80;1.30;;;17.30;84.70;;;;;;5096115;28;20162;-87
2021/08/25 12:25:42;;;;;;;1.58;1.08;;;17.40;85.50;;;;;;5077625;28;20175;-87
2021/08/25 12:28:09;;;;;;;1.73;1.20;;;17.50;86.00;;;;;;5096019;28;20250;-87
2021/08/25 12:30:37;;;;;;;2.92;1.40;;;17.30;85.90;;;;;;5077570;28;20174;-87
2021/08/25 12:33:05;;;;;;;3.13;1.70;;;17.40;86.80;;;;;;5095714;28;20177;-87
2021/08/25 12:35:35;;;;;;;2.33;1.60;;;17.30;87.00;;;;;;5078279;28;20175;-87
2021/08/25 12:38:03;;;;;;;2.38;1.30;;;17.30;87.90;;;;;;5077209;28;20296;-87
2021/08/25 12:40:30;;;;;;;1.95;1.33;;;17.10;88.60;;;;;;5095338;28;20190;-87
2021/08/25 12:42:57;;;;;;;2.30;1.20;;;17.10;89.10;;;;;;5077323;28;20179;-87
2021/08/25 12:45:23;;;;;;;3.45;1.10;;;17.20;89.00;;;;;;5095251;28;20669;-87
2021/08/25 12:47:54;;;;;;;2.90;1.20;;;17.20;88.30;;;;;;5077087;28;20170;-87